sensor_id;sensor_type;location;lat;lon;timestamp;pressure;altitude;pressure_sealevel;temperature;humidity
43217;BME280;71549;42.686;23.300;2024-02-26T00:01:58;94273.00;;;22.17;33.43
43217;BME280;71549;42.686;23.300;2024-02-26T00:04:00;94267.31;;;22.22;33.54
43217;BME280;71549;42.686;23.300;2024-02-26T00:06:03;94266.91;;;22.20;33.61
43217;BME280;71549;42.686;23.300;2024-02-26T00:08:04;94271.16;;;22.21;33.46
43217;BME280;71549;42.686;23.300;2024-02-26T00:10:07;94269.25;;;22.22;33.61
43217;BME280;71549;42.686;23.300;2024-02-26T00:12:08;94265.69;;;22.18;33.48
43217;BME280;71549;42.686;23.300;2024-02-26T00:14:10;94262.66;;;22.19;33.63
43217;BME280;71549;42.686;23.300;2024-02-26T00:16:11;94266.47;;;22.18;33.46
43217;BME280;71549;42.686;23.300;2024-02-26T00:18:13;94265.34;;;22.19;33.60
43217;BME280;71549;42.686;23.300;2024-02-26T00:20:16;94257.59;;;22.18;33.61
43217;BME280;71549;42.686;23.300;2024-02-26T00:22:18;94257.97;;;22.16;33.55
43217;BME280;71549;42.686;23.300;2024-02-26T00:24:19;94261.81;;;22.15;33.67
43217;BME280;71549;42.686;23.300;2024-02-26T00:26:21;94255.25;;;22.16;33.46
43217;BME280;71549;42.686;23.300;2024-02-26T00:28:23;94252.66;;;22.20;33.39
43217;BME280;71549;42.686;23.300;2024-02-26T00:30:27;94252.31;;;22.21;33.48
43217;BME280;71549;42.686;23.300;2024-02-26T00:32:29;94250.38;;;22.22;33.41
43217;BME280;71549;42.686;23.300;2024-02-26T00:34:31;94251.63;;;22.24;33.72
43217;BME280;71549;42.686;23.300;2024-02-26T00:36:33;94251.63;;;22.24;33.58
43217;BME280;71549;42.686;23.300;2024-02-26T00:38:35;94250.84;;;22.24;33.35
43217;BME280;71549;42.686;23.300;2024-02-26T00:40:35;94240.81;;;22.24;33.31
43217;BME280;71549;42.686;23.300;2024-02-26T00:42:37;94245.88;;;22.26;33.72
43217;BME280;71549;42.686;23.300;2024-02-26T00:44:39;94242.88;;;22.31;33.30
43217;BME280;71549;42.686;23.300;2024-02-26T00:46:40;94230.13;;;22.28;33.19
43217;BME280;71549;42.686;23.300;2024-02-26T00:48:42;94234.66;;;22.24;33.37
43217;BME280;71549;42.686;23.300;2024-02-26T00:50:44;94231.63;;;22.25;33.47
43217;BME280;71549;42.686;23.300;2024-02-26T00:52:46;94233.16;;;22.26;33.31
43217;BME280;71549;42.686;23.300;2024-02-26T00:54:48;94240.47;;;22.26;33.20
43217;BME280;71549;42.686;23.300;2024-02-26T00:56:49;94231.66;;;22.29;33.28
43217;BME280;71549;42.686;23.300;2024-02-26T00:58:51;94224.72;;;22.28;33.47
43217;BME280;71549;42.686;23.300;2024-02-26T01:00:53;94219.25;;;22.24;33.60
43217;BME280;71549;42.686;23.300;2024-02-26T01:02:55;94220.47;;;22.27;33.30
43217;BME280;71549;42.686;23.300;2024-02-26T01:04:55;94221.25;;;22.27;33.24
43217;BME280;71549;42.686;23.300;2024-02-26T01:06:57;94225.44;;;22.25;33.46
43217;BME280;71549;42.686;23.300;2024-02-26T01:08:59;94219.94;;;22.21;33.33
43217;BME280;71549;42.686;23.300;2024-02-26T01:11:01;94217.72;;;22.23;33.32
43217;BME280;71549;42.686;23.300;2024-02-26T01:13:03;94220.03;;;22.25;33.50
43217;BME280;71549;42.686;23.300;2024-02-26T01:15:05;94223.09;;;22.23;33.41
43217;BME280;71549;42.686;23.300;2024-02-26T01:17:07;94220.47;;;22.27;33.34
43217;BME280;71549;42.686;23.300;2024-02-26T01:19:08;94222.28;;;22.23;33.41
43217;BME280;71549;42.686;23.300;2024-02-26T01:21:10;94223.09;;;22.23;33.56
43217;BME280;71549;42.686;23.300;2024-02-26T01:23:12;94212.75;;;22.25;33.22
43217;BME280;71549;42.686;23.300;2024-02-26T01:25:16;94214.66;;;22.25;33.33
43217;BME280;71549;42.686;23.300;2024-02-26T01:27:18;94224.97;;;22.23;33.51
43217;BME280;71549;42.686;23.300;2024-02-26T01:29:20;94217.06;;;22.30;33.77
43217;BME280;71549;42.686;23.300;2024-02-26T01:31:22;94213.59;;;22.30;33.31
43217;BME280;71549;42.686;23.300;2024-02-26T01:33:24;94211.69;;;22.30;33.36
43217;BME280;71549;42.686;23.300;2024-02-26T01:35:26;94207.78;;;22.27;33.39
43217;BME280;71549;42.686;23.300;2024-02-26T01:37:28;94199.69;;;22.27;33.22
43217;BME280;71549;42.686;23.300;2024-02-26T01:39:30;94208.91;;;22.26;33.30
43217;BME280;71549;42.686;23.300;2024-02-26T01:41:33;94203.16;;;22.28;33.35
43217;BME280;71549;42.686;23.300;2024-02-26T01:43:34;94207.41;;;22.29;33.04
43217;BME280;71549;42.686;23.300;2024-02-26T01:45:36;94205.50;;;22.30;33.27
43217;BME280;71549;42.686;23.300;2024-02-26T01:47:38;94199.41;;;22.33;33.14
43217;BME280;71549;42.686;23.300;2024-02-26T01:49:40;94197.84;;;22.32;33.16
43217;BME280;71549;42.686;23.300;2024-02-26T01:51:42;94202.38;;;22.27;33.08
43217;BME280;71549;42.686;23.300;2024-02-26T01:53:44;94200.03;;;22.26;33.40
43217;BME280;71549;42.686;23.300;2024-02-26T01:55:47;94194.31;;;22.27;33.31
43217;BME280;71549;42.686;23.300;2024-02-26T01:57:50;94199.28;;;22.25;33.57
43217;BME280;71549;42.686;23.300;2024-02-26T01:59:53;94198.72;;;22.20;33.29
43217;BME280;71549;42.686;23.300;2024-02-26T02:01:57;94199.09;;;22.18;33.55
43217;BME280;71549;42.686;23.300;2024-02-26T02:04:00;94201.44;;;22.20;33.48
43217;BME280;71549;42.686;23.300;2024-02-26T02:06:02;94198.66;;;22.16;33.63
43217;BME280;71549;42.686;23.300;2024-02-26T02:08:04;94193.63;;;22.15;33.20
43217;BME280;71549;42.686;23.300;2024-02-26T02:10:06;94198.22;;;22.14;33.51
43217;BME280;71549;42.686;23.300;2024-02-26T02:12:08;94191.72;;;22.15;33.41
43217;BME280;71549;42.686;23.300;2024-02-26T02:14:12;94187.78;;;22.13;33.66
43217;BME280;71549;42.686;23.300;2024-02-26T02:16:14;94190.88;;;22.11;33.50
43217;BME280;71549;42.686;23.300;2024-02-26T02:18:16;94190.06;;;22.11;33.78
43217;BME280;71549;42.686;23.300;2024-02-26T02:20:18;94200.22;;;22.17;33.66
43217;BME280;71549;42.686;23.300;2024-02-26T02:22:21;94191.00;;;22.18;33.43
43217;BME280;71549;42.686;23.300;2024-02-26T02:24:22;94190.91;;;22.15;33.23
43217;BME280;71549;42.686;23.300;2024-02-26T02:26:24;94194.34;;;22.12;33.25
43217;BME280;71549;42.686;23.300;2024-02-26T02:28:26;94208.66;;;22.16;34.15
43217;BME280;71549;42.686;23.300;2024-02-26T02:30:29;94195.78;;;22.25;34.32
43217;BME280;71549;42.686;23.300;2024-02-26T02:32:31;94189.06;;;22.19;34.38
43217;BME280;71549;42.686;23.300;2024-02-26T02:34:33;94189.78;;;22.16;35.15
43217;BME280;71549;42.686;23.300;2024-02-26T02:36:34;94183.63;;;22.15;34.66
43217;BME280;71549;42.686;23.300;2024-02-26T02:38:37;94181.28;;;22.14;34.98
43217;BME280;71549;42.686;23.300;2024-02-26T02:40:39;94186.59;;;22.10;35.50
43217;BME280;71549;42.686;23.300;2024-02-26T02:42:40;94200.84;;;22.11;34.53
43217;BME280;71549;42.686;23.300;2024-02-26T02:44:41;94199.31;;;22.10;34.24
43217;BME280;71549;42.686;23.300;2024-02-26T02:46:44;94202.00;;;22.10;35.14
43217;BME280;71549;42.686;23.300;2024-02-26T02:48:45;94198.88;;;22.07;34.92
43217;BME280;71549;42.686;23.300;2024-02-26T02:50:47;94201.56;;;22.07;34.92
43217;BME280;71549;42.686;23.300;2024-02-26T02:52:48;94204.25;;;22.07;34.58
43217;BME280;71549;42.686;23.300;2024-02-26T02:54:52;94203.84;;;22.05;34.90
43217;BME280;71549;42.686;23.300;2024-02-26T02:56:53;94211.91;;;22.05;34.53
43217;BME280;71549;42.686;23.300;2024-02-26T02:58:55;94214.97;;;22.04;35.24
43217;BME280;71549;42.686;23.300;2024-02-26T03:00:57;94214.97;;;22.04;34.51
43217;BME280;71549;42.686;23.300;2024-02-26T03:03:00;94210.72;;;22.03;34.41
43217;BME280;71549;42.686;23.300;2024-02-26T03:05:01;94205.69;;;22.01;34.78
43217;BME280;71549;42.686;23.300;2024-02-26T03:07:02;94208.38;;;22.01;34.94
43217;BME280;71549;42.686;23.300;2024-02-26T03:09:04;94208.38;;;22.01;34.53
43217;BME280;71549;42.686;23.300;2024-02-26T03:11:07;94208.06;;;22.06;34.75
43217;BME280;71549;42.686;23.300;2024-02-26T03:13:09;94206.53;;;22.05;34.41
43217;BME280;71549;42.686;23.300;2024-02-26T03:15:11;94210.34;;;22.04;34.10
43217;BME280;71549;42.686;23.300;2024-02-26T03:17:13;94216.88;;;22.03;34.44
43217;BME280;71549;42.686;23.300;2024-02-26T03:19:15;94213.03;;;22.04;34.42
43217;BME280;71549;42.686;23.300;2024-02-26T03:21:17;94213.41;;;22.03;34.59
43217;BME280;71549;42.686;23.300;2024-02-26T03:23:18;94203.41;;;22.03;34.16
43217;BME280;71549;42.686;23.300;2024-02-26T03:25:21;94204.53;;;22.02;34.06
43217;BME280;71549;42.686;23.300;2024-02-26T03:27:24;94196.88;;;22.04;34.60
43217;BME280;71549;42.686;23.300;2024-02-26T03:29:26;94186.81;;;22.01;34.34
43217;BME280;71549;42.686;23.300;2024-02-26T03:31:28;94198.72;;;22.00;34.47
43217;BME280;71549;42.686;23.300;2024-02-26T03:33:30;94189.09;;;21.99;34.69
43217;BME280;71549;42.686;23.300;2024-02-26T03:35:30;94188.31;;;21.99;34.61
43217;BME280;71549;42.686;23.300;2024-02-26T03:37:32;94175.59;;;21.99;34.19
43217;BME280;71549;42.686;23.300;2024-02-26T03:39:34;94186.38;;;21.99;34.75
43217;BME280;71549;42.686;23.300;2024-02-26T03:41:34;94187.16;;;22.00;34.25
43217;BME280;71549;42.686;23.300;2024-02-26T03:43:38;94189.09;;;21.99;34.26
43217;BME280;71549;42.686;23.300;2024-02-26T03:45:40;94197.16;;;21.99;34.40
43217;BME280;71549;42.686;23.300;2024-02-26T03:47:41;94198.78;;;22.04;34.49
43217;BME280;71549;42.686;23.300;2024-02-26T03:49:43;94191.47;;;22.04;34.62
43217;BME280;71549;42.686;23.300;2024-02-26T03:51:45;94182.28;;;22.05;34.39
43217;BME280;71549;42.686;23.300;2024-02-26T03:53:47;94179.50;;;22.02;34.60
43217;BME280;71549;42.686;23.300;2024-02-26T03:55:48;94167.19;;;22.01;34.35
43217;BME280;71549;42.686;23.300;2024-02-26T03:57:52;94180.56;;;21.97;34.35
43217;BME280;71549;42.686;23.300;2024-02-26T03:59:55;94173.97;;;21.95;34.35
43217;BME280;71549;42.686;23.300;2024-02-26T04:01:57;94188.22;;;21.95;34.31
43217;BME280;71549;42.686;23.300;2024-02-26T04:03:59;94183.97;;;21.94;34.17
43217;BME280;71549;42.686;23.300;2024-02-26T04:06:01;94172.84;;;21.96;34.21
43217;BME280;71549;42.686;23.300;2024-02-26T04:08:03;94170.13;;;21.96;34.44
43217;BME280;71549;42.686;23.300;2024-02-26T04:10:10;94173.19;;;21.94;34.55
43217;BME280;71549;42.686;23.300;2024-02-26T04:12:11;94167.03;;;21.94;34.14
43217;BME280;71549;42.686;23.300;2024-02-26T04:14:12;94170.56;;;21.98;34.15
43217;BME280;71549;42.686;23.300;2024-02-26T04:16:16;94177.09;;;21.97;34.29
43217;BME280;71549;42.686;23.300;2024-02-26T04:18:16;94170.72;;;22.05;34.45
43217;BME280;71549;42.686;23.300;2024-02-26T04:20:18;94157.88;;;21.98;34.06
43217;BME280;71549;42.686;23.300;2024-02-26T04:22:19;94148.59;;;21.96;34.43
43217;BME280;71549;42.686;23.300;2024-02-26T04:24:21;94160.50;;;21.95;34.00
43217;BME280;71549;42.686;23.300;2024-02-26T04:26:22;94165.91;;;21.95;34.16
43217;BME280;71549;42.686;23.300;2024-02-26T04:28:24;94163.97;;;21.95;33.95
43217;BME280;71549;42.686;23.300;2024-02-26T04:30:26;94167.38;;;21.92;34.24
43217;BME280;71549;42.686;23.300;2024-02-26T04:32:29;94154.28;;;21.91;34.31
43217;BME280;71549;42.686;23.300;2024-02-26T04:34:31;94161.19;;;21.92;34.05
43217;BME280;71549;42.686;23.300;2024-02-26T04:36:33;94156.97;;;21.91;33.92
43217;BME280;71549;42.686;23.300;2024-02-26T04:38:34;94166.16;;;21.90;33.97
43217;BME280;71549;42.686;23.300;2024-02-26T04:40:36;94165.03;;;21.91;33.89
43217;BME280;71549;42.686;23.300;2024-02-26T04:42:38;94169.63;;;21.90;33.97
43217;BME280;71549;42.686;23.300;2024-02-26T04:44:40;94162.69;;;21.89;34.18
43217;BME280;71549;42.686;23.300;2024-02-26T04:46:40;94170.06;;;21.92;34.39
43217;BME280;71549;42.686;23.300;2024-02-26T04:48:43;94175.03;;;21.90;33.89
43217;BME280;71549;42.686;23.300;2024-02-26T04:50:46;94160.34;;;21.87;33.90
43217;BME280;71549;42.686;23.300;2024-02-26T04:52:47;94171.91;;;21.88;33.89
43217;BME280;71549;42.686;23.300;2024-02-26T04:54:49;94170.34;;;21.87;33.97
43217;BME280;71549;42.686;23.300;2024-02-26T04:56:50;94172.31;;;21.90;33.99
43217;BME280;71549;42.686;23.300;2024-02-26T04:58:52;94180.56;;;21.97;34.31
43217;BME280;71549;42.686;23.300;2024-02-26T05:00:53;94193.69;;;21.99;33.88
43217;BME280;71549;42.686;23.300;2024-02-26T05:02:55;94172.84;;;21.96;34.04
43217;BME280;71549;42.686;23.300;2024-02-26T05:04:59;94181.63;;;21.93;33.74
43217;BME280;71549;42.686;23.300;2024-02-26T05:06:59;94185.09;;;21.93;34.24
43217;BME280;71549;42.686;23.300;2024-02-26T05:09:01;94183.53;;;21.92;33.98
43217;BME280;71549;42.686;23.300;2024-02-26T05:11:04;94198.56;;;21.93;34.01
43217;BME280;71549;42.686;23.300;2024-02-26T05:13:06;94197.00;;;21.92;34.04
43217;BME280;71549;42.686;23.300;2024-02-26T05:15:08;94197.38;;;21.91;33.91
43217;BME280;71549;42.686;23.300;2024-02-26T05:17:10;94202.75;;;21.91;33.95
43217;BME280;71549;42.686;23.300;2024-02-26T05:19:12;94205.81;;;21.89;33.90
43217;BME280;71549;42.686;23.300;2024-02-26T05:21:15;94206.22;;;21.91;34.06
43217;BME280;71549;42.686;23.300;2024-02-26T05:23:17;94218.13;;;21.90;34.33
43217;BME280;71549;42.686;23.300;2024-02-26T05:25:19;94215.81;;;21.89;33.93
43217;BME280;71549;42.686;23.300;2024-02-26T05:27:20;94217.69;;;21.88;33.99
43217;BME280;71549;42.686;23.300;2024-02-26T05:29:21;94211.34;;;21.96;34.43
43217;BME280;71549;42.686;23.300;2024-02-26T05:31:23;94215.88;;;21.92;34.29
43217;BME280;71549;42.686;23.300;2024-02-26T05:33:25;94225.09;;;21.91;35.95
43217;BME280;71549;42.686;23.300;2024-02-26T05:35:25;94223.09;;;21.88;34.27
43217;BME280;71549;42.686;23.300;2024-02-26T05:37:28;94232.84;;;21.93;34.89
43217;BME280;71549;42.686;23.300;2024-02-26T05:39:29;94238.91;;;21.90;35.58
43217;BME280;71549;42.686;23.300;2024-02-26T05:41:31;94230.75;;;21.86;34.61
43217;BME280;71549;42.686;23.300;2024-02-26T05:43:33;94230.31;;;21.84;34.62
43217;BME280;71549;42.686;23.300;2024-02-26T05:45:34;94227.44;;;21.93;34.45
43217;BME280;71549;42.686;23.300;2024-02-26T05:47:36;94232.84;;;21.93;34.23
43217;BME280;71549;42.686;23.300;2024-02-26T05:49:42;94239.34;;;21.92;33.98
43217;BME280;71549;42.686;23.300;2024-02-26T05:51:44;94230.06;;;21.89;34.04
43217;BME280;71549;42.686;23.300;2024-02-26T05:53:47;94231.16;;;21.88;34.32
43217;BME280;71549;42.686;23.300;2024-02-26T05:55:53;94233.09;;;21.87;34.25
43217;BME280;71549;42.686;23.300;2024-02-26T05:57:55;94225.78;;;21.88;34.02
43217;BME280;71549;42.686;23.300;2024-02-26T05:59:57;94237.72;;;21.87;34.12
43217;BME280;71549;42.686;23.300;2024-02-26T06:02:03;94239.63;;;21.86;33.85
43217;BME280;71549;42.686;23.300;2024-02-26T06:04:04;94238.47;;;21.87;34.02
43217;BME280;71549;42.686;23.300;2024-02-26T06:06:06;94240.41;;;21.87;34.08
43217;BME280;71549;42.686;23.300;2024-02-26T06:08:07;94241.94;;;21.88;33.92
43217;BME280;71549;42.686;23.300;2024-02-26T06:10:10;94242.88;;;21.96;34.18
43217;BME280;71549;42.686;23.300;2024-02-26T06:12:14;94243.19;;;21.91;34.30
43217;BME280;71549;42.686;23.300;2024-02-26T06:14:15;94247.75;;;21.90;33.95
43217;BME280;71549;42.686;23.300;2024-02-26T06:16:18;94244.66;;;21.88;33.91
43217;BME280;71549;42.686;23.300;2024-02-26T06:18:19;94252.38;;;21.90;33.72
43217;BME280;71549;42.686;23.300;2024-02-26T06:20:21;94252.38;;;21.90;34.34
43217;BME280;71549;42.686;23.300;2024-02-26T06:22:22;94247.50;;;21.95;34.21
43217;BME280;71549;42.686;23.300;2024-02-26T06:24:24;94246.00;;;21.98;34.48
43217;BME280;71549;42.686;23.300;2024-02-26T06:26:27;94240.63;;;21.98;34.69
43217;BME280;71549;42.686;23.300;2024-02-26T06:28:29;94250.19;;;21.95;34.37
43217;BME280;71549;42.686;23.300;2024-02-26T06:30:33;94244.94;;;22.02;34.31
43217;BME280;71549;42.686;23.300;2024-02-26T06:32:34;94244.25;;;22.05;34.03
43217;BME280;71549;42.686;23.300;2024-02-26T06:34:36;94248.06;;;22.04;34.06
43217;BME280;71549;42.686;23.300;2024-02-26T06:36:38;94249.91;;;22.00;33.87
43217;BME280;71549;42.686;23.300;2024-02-26T06:38:39;94253.09;;;21.86;33.75
43217;BME280;71549;42.686;23.300;2024-02-26T06:40:41;94254.50;;;21.80;34.35
43217;BME280;71549;42.686;23.300;2024-02-26T06:42:43;94249.03;;;21.77;34.10
43217;BME280;71549;42.686;23.300;2024-02-26T06:44:45;94252.06;;;21.75;34.01
43217;BME280;71549;42.686;23.300;2024-02-26T06:46:46;94253.56;;;21.73;34.14
43217;BME280;71549;42.686;23.300;2024-02-26T06:48:48;94251.19;;;21.71;34.17
43217;BME280;71549;42.686;23.300;2024-02-26T06:50:49;94248.84;;;21.70;34.22
43217;BME280;71549;42.686;23.300;2024-02-26T06:52:51;94253.47;;;21.69;33.99
43217;BME280;71549;42.686;23.300;2024-02-26T06:54:52;94248.84;;;21.70;34.22
43217;BME280;71549;42.686;23.300;2024-02-26T06:56:54;94255.38;;;21.69;34.23
43217;BME280;71549;42.686;23.300;2024-02-26T06:59:01;94254.25;;;21.70;34.35
43217;BME280;71549;42.686;23.300;2024-02-26T07:01:02;94251.13;;;21.67;34.21
43217;BME280;71549;42.686;23.300;2024-02-26T07:03:04;94254.59;;;21.68;34.49
43217;BME280;71549;42.686;23.300;2024-02-26T07:05:06;94253.81;;;21.67;34.35
43217;BME280;71549;42.686;23.300;2024-02-26T07:07:07;94253.91;;;21.71;34.34
43217;BME280;71549;42.686;23.300;2024-02-26T07:09:09;94255.38;;;21.69;34.33
43217;BME280;71549;42.686;23.300;2024-02-26T07:11:12;94249.22;;;21.68;34.42
43217;BME280;71549;42.686;23.300;2024-02-26T07:13:14;94257.72;;;21.70;34.76
43217;BME280;71549;42.686;23.300;2024-02-26T07:15:16;94263.91;;;21.71;35.09
43217;BME280;71549;42.686;23.300;2024-02-26T07:17:18;94260.44;;;21.70;34.99
43217;BME280;71549;42.686;23.300;2024-02-26T07:19:19;94265.81;;;21.70;35.32
43217;BME280;71549;42.686;23.300;2024-02-26T07:21:21;94270.41;;;21.70;35.40
43217;BME280;71549;42.686;23.300;2024-02-26T07:23:23;94263.88;;;21.86;35.59
43217;BME280;71549;42.686;23.300;2024-02-26T07:25:24;94271.25;;;21.90;35.53
43217;BME280;71549;42.686;23.300;2024-02-26T07:27:26;94272.44;;;21.92;36.37
43217;BME280;71549;42.686;23.300;2024-02-26T07:29:28;94267.25;;;21.83;36.01
43217;BME280;71549;42.686;23.300;2024-02-26T07:31:31;94262.94;;;21.79;36.01
43217;BME280;71549;42.686;23.300;2024-02-26T07:33:33;94268.66;;;21.77;36.69
43217;BME280;71549;42.686;23.300;2024-02-26T07:35:35;94262.41;;;21.73;36.65
43217;BME280;71549;42.686;23.300;2024-02-26T07:37:37;94264.75;;;21.75;36.51
43217;BME280;71549;42.686;23.300;2024-02-26T07:39:39;94271.69;;;21.76;35.91
43217;BME280;71549;42.686;23.300;2024-02-26T07:41:39;94274.75;;;21.74;36.51
43217;BME280;71549;42.686;23.300;2024-02-26T07:43:41;94276.31;;;21.75;36.26
43217;BME280;71549;42.686;23.300;2024-02-26T07:45:42;94264.75;;;21.75;36.13
43217;BME280;71549;42.686;23.300;2024-02-26T07:47:45;94276.31;;;21.75;36.50
43217;BME280;71549;42.686;23.300;2024-02-26T07:49:47;94265.19;;;21.77;36.15
43217;BME280;71549;42.686;23.300;2024-02-26T07:51:48;94259.03;;;21.76;36.13
43217;BME280;71549;42.686;23.300;2024-02-26T07:53:50;94260.56;;;21.77;36.25
43217;BME280;71549;42.686;23.300;2024-02-26T07:55:53;94262.84;;;21.75;36.30
43217;BME280;71549;42.686;23.300;2024-02-26T07:57:54;94272.50;;;21.76;36.15
43217;BME280;71549;42.686;23.300;2024-02-26T07:59:56;94265.53;;;21.75;36.06
43217;BME280;71549;42.686;23.300;2024-02-26T08:01:58;94265.19;;;21.77;36.01
43217;BME280;71549;42.686;23.300;2024-02-26T08:04:02;94265.19;;;21.77;36.14
43217;BME280;71549;42.686;23.300;2024-02-26T08:06:04;94264.84;;;21.78;36.11
43217;BME280;71549;42.686;23.300;2024-02-26T08:08:06;94255.97;;;21.78;35.79
43217;BME280;71549;42.686;23.300;2024-02-26T08:10:08;94253.28;;;21.78;35.90
43217;BME280;71549;42.686;23.300;2024-02-26T08:12:11;94265.19;;;21.77;36.11
43217;BME280;71549;42.686;23.300;2024-02-26T08:14:12;94255.63;;;21.79;35.62
43217;BME280;71549;42.686;23.300;2024-02-26T08:16:14;94252.94;;;21.79;35.65
43217;BME280;71549;42.686;23.300;2024-02-26T08:18:16;94236.53;;;21.69;35.59
43217;BME280;71549;42.686;23.300;2024-02-26T08:20:19;94245.19;;;21.78;35.65
43217;BME280;71549;42.686;23.300;2024-02-26T08:22:21;94256.06;;;21.81;35.55
43217;BME280;71549;42.686;23.300;2024-02-26T08:24:22;94249.88;;;21.81;35.57
43217;BME280;71549;42.686;23.300;2024-02-26T08:26:24;94247.53;;;21.79;35.96
43217;BME280;71549;42.686;23.300;2024-02-26T08:28:26;94249.88;;;21.81;35.29
43217;BME280;71549;42.686;23.300;2024-02-26T08:30:28;94257.63;;;21.82;35.38
43217;BME280;71549;42.686;23.300;2024-02-26T08:32:28;94255.28;;;21.81;35.30
43217;BME280;71549;42.686;23.300;2024-02-26T08:34:30;94258.41;;;21.83;35.63
43217;BME280;71549;42.686;23.300;2024-02-26T08:36:33;94249.53;;;21.82;35.70
43217;BME280;71549;42.686;23.300;2024-02-26T08:38:35;94254.94;;;21.82;35.35
43217;BME280;71549;42.686;23.300;2024-02-26T08:40:37;94251.09;;;21.83;35.24
43217;BME280;71549;42.686;23.300;2024-02-26T08:42:38;94251.88;;;21.84;35.48
43217;BME280;71549;42.686;23.300;2024-02-26T08:44:40;94258.06;;;21.84;35.23
43217;BME280;71549;42.686;23.300;2024-02-26T08:46:42;94252.28;;;21.86;34.96
43217;BME280;71549;42.686;23.300;2024-02-26T08:48:44;94253.09;;;21.86;35.36
43217;BME280;71549;42.686;23.300;2024-02-26T08:50:45;94245.00;;;21.86;35.19
43217;BME280;71549;42.686;23.300;2024-02-26T08:52:48;94245.78;;;21.87;34.90
43217;BME280;71549;42.686;23.300;2024-02-26T08:54:51;94249.69;;;21.90;35.21
43217;BME280;71549;42.686;23.300;2024-02-26T08:56:52;94253.88;;;21.87;35.09
43217;BME280;71549;42.686;23.300;2024-02-26T08:58:54;94247.34;;;21.88;35.13
43217;BME280;71549;42.686;23.300;2024-02-26T09:00:57;94243.09;;;21.87;35.34
43217;BME280;71549;42.686;23.300;2024-02-26T09:02:59;94248.47;;;21.87;34.81
43217;BME280;71549;42.686;23.300;2024-02-26T09:04:59;94238.91;;;21.90;34.94
43217;BME280;71549;42.686;23.300;2024-02-26T09:07:01;94242.38;;;21.90;34.81
43217;BME280;71549;42.686;23.300;2024-02-26T09:09:04;94241.25;;;21.91;34.88
43217;BME280;71549;42.686;23.300;2024-02-26T09:11:06;94234.28;;;21.90;35.09
43217;BME280;71549;42.686;23.300;2024-02-26T09:13:10;94233.19;;;21.91;34.76
43217;BME280;71549;42.686;23.300;2024-02-26T09:15:12;94232.75;;;21.89;34.81
43217;BME280;71549;42.686;23.300;2024-02-26T09:17:13;94241.25;;;21.91;34.68
43217;BME280;71549;42.686;23.300;2024-02-26T09:19:14;94237.78;;;21.91;34.54
43217;BME280;71549;42.686;23.300;2024-02-26T09:21:16;94240.13;;;21.92;34.80
43217;BME280;71549;42.686;23.300;2024-02-26T09:23:23;94230.13;;;21.93;34.80
43217;BME280;71549;42.686;23.300;2024-02-26T09:25:26;94233.19;;;21.91;34.69
43217;BME280;71549;42.686;23.300;2024-02-26T09:27:28;94228.56;;;21.92;34.44
43217;BME280;71549;42.686;23.300;2024-02-26T09:29:30;94229.00;;;21.94;34.56
43217;BME280;71549;42.686;23.300;2024-02-26T09:31:33;94234.38;;;21.94;34.80
43217;BME280;71549;42.686;23.300;2024-02-26T09:33:35;94237.06;;;21.94;34.49
43217;BME280;71549;42.686;23.300;2024-02-26T09:35:37;94234.81;;;21.96;34.39
43217;BME280;71549;42.686;23.300;2024-02-26T09:37:38;94228.66;;;21.95;34.46
43217;BME280;71549;42.686;23.300;2024-02-26T09:39:40;94227.50;;;21.96;34.41
43217;BME280;71549;42.686;23.300;2024-02-26T09:41:44;94223.69;;;21.97;34.33
43217;BME280;71549;42.686;23.300;2024-02-26T09:43:46;94225.59;;;21.97;34.43
43217;BME280;71549;42.686;23.300;2024-02-26T09:45:50;94214.44;;;21.98;34.27
43217;BME280;71549;42.686;23.300;2024-02-26T09:47:52;94217.94;;;21.99;34.64
43217;BME280;71549;42.686;23.300;2024-02-26T09:49:54;94216.03;;;21.99;34.60
43217;BME280;71549;42.686;23.300;2024-02-26T09:51:57;94220.66;;;21.99;34.39
43217;BME280;71549;42.686;23.300;2024-02-26T09:54:02;94220.66;;;21.99;34.51
43217;BME280;71549;42.686;23.300;2024-02-26T09:56:04;94216.03;;;21.99;34.50
43217;BME280;71549;42.686;23.300;2024-02-26T09:58:08;94221.41;;;21.99;34.48
43217;BME280;71549;42.686;23.300;2024-02-26T10:00:17;94217.56;;;22.00;34.47
43217;BME280;71549;42.686;23.300;2024-02-26T10:02:20;94204.91;;;22.01;34.11
43217;BME280;71549;42.686;23.300;2024-02-26T10:04:22;94212.19;;;22.00;34.12
43217;BME280;71549;42.686;23.300;2024-02-26T10:06:24;94204.91;;;22.01;34.17
43217;BME280;71549;42.686;23.300;2024-02-26T10:08:27;94206.44;;;22.02;34.14
43217;BME280;71549;42.686;23.300;2024-02-26T10:10:29;94082.63;;;21.15;34.41
43217;BME280;71549;42.686;23.300;2024-02-26T10:12:31;94206.09;;;22.03;34.00
43217;BME280;71549;42.686;23.300;2024-02-26T10:14:34;94201.84;;;22.02;33.97
43217;BME280;71549;42.686;23.300;2024-02-26T10:16:36;94201.06;;;22.02;34.08
43217;BME280;71549;42.686;23.300;2024-02-26T10:18:47;94190.28;;;22.02;34.36
43217;BME280;71549;42.686;23.300;2024-02-26T10:20:58;94190.72;;;22.04;33.90
43217;BME280;71549;42.686;23.300;2024-02-26T10:23:02;94184.53;;;22.03;34.19
43217;BME280;71549;42.686;23.300;2024-02-26T10:25:05;94189.94;;;22.03;34.13
43217;BME280;71549;42.686;23.300;2024-02-26T10:27:08;94185.31;;;22.04;34.32
43217;BME280;71549;42.686;23.300;2024-02-26T10:29:09;94168.38;;;22.03;34.25
43217;BME280;71549;42.686;23.300;2024-02-26T10:31:13;94168.38;;;22.03;33.89
43217;BME280;71549;42.686;23.300;2024-02-26T10:33:15;94181.84;;;22.03;34.11
43217;BME280;71549;42.686;23.300;2024-02-26T10:35:17;94179.16;;;22.03;33.96
43217;BME280;71549;42.686;23.300;2024-02-26T10:37:20;94171.06;;;22.03;33.86
43217;BME280;71549;42.686;23.300;2024-02-26T10:39:23;94161.06;;;22.04;34.07